Time;durP1;ratioP1;P1;durP2;ratioP2;P2;SDS_P1;SDS_P2;PMS_P1;PMS_P2;Temp;Humidity;BMP_temperature;BMP_pressure;BME280_temperature;BME280_humidity;BME280_pressure;Samples;Min_cycle;Max_cycle;Signal;HPM_P1;HPM_P2
2021/12/13 00:02:01;;;;;;;;;;;10.10;99.90;;;;;;5112456;28;19973;-84
2021/12/13 00:04:29;;;;;;;;;;;10.00;99.90;;;;;;5094909;28;19946;-84
2021/12/13 00:06:57;;;;;;;;;;;10.10;99.90;;;;;;5095344;28;20401;-84
2021/12/13 00:09:23;;;;;;;;;;;10.10;99.90;;;;;;5095332;28;20332;-84
2021/12/13 00:11:52;;;;;;;;;;;10.10;99.90;;;;;;5112042;28;19924;-84
2021/12/13 00:14:22;;;;;;;;;;;10.10;99.90;;;;;;5095302;28;20052;-84
2021/12/13 00:16:49;;;;;;;;;;;10.10;99.90;;;;;;5093880;28;19932;-85
2021/12/13 00:19:16;;;;;;;;;;;10.10;99.90;;;;;;5097453;28;19953;-84
2021/12/13 00:21:44;;;;;;;;;;;10.10;99.90;;;;;;5078030;28;19928;-84
2021/12/13 00:24:20;;;;;;;;;;;10.10;99.90;;;;;;5112045;28;20008;-84
2021/12/13 00:26:47;;;;;;;;;;;10.20;99.90;;;;;;5094867;28;19938;-84
2021/12/13 00:29:26;;;;;;;;;;;10.10;99.90;;;;;;5077783;28;20291;-84
2021/12/13 00:32:00;;;;;;;;;;;10.20;99.90;;;;;;5095702;28;20332;-84
2021/12/13 00:34:28;;;;;;;;;;;10.10;99.90;;;;;;5112070;28;19935;-84
2021/12/13 00:36:56;;;;;;;;;;;10.10;99.90;;;;;;5094940;28;19931;-84
2021/12/13 00:39:32;;;;;;;;;;;10.10;99.90;;;;;;5077984;28;19923;-83
2021/12/13 00:41:58;;;;;;;;;;;10.10;99.90;;;;;;5094894;28;19985;-84
2021/12/13 00:44:24;;;;;;;;;;;10.10;99.90;;;;;;5095125;28;19924;-84
2021/12/13 00:46:51;;;;;;;;;;;10.10;99.90;;;;;;5111604;28;20284;-84
2021/12/13 00:49:17;;;;;;;;;;;10.20;99.90;;;;;;5111678;28;19976;-83
2021/12/13 00:51:43;;;;;;;;;;;10.20;99.90;;;;;;5096347;28;19931;-84
2021/12/13 00:54:10;;;;;;;;;;;10.10;99.90;;;;;;5115451;28;19923;-84
2021/12/13 00:56:47;;;;;;;;;;;10.20;99.90;;;;;;5098101;28;19927;-84
2021/12/13 00:59:18;;;;;;;;;;;10.10;99.90;;;;;;5094863;28;19931;-83
2021/12/13 01:01:47;;;;;;;;;;;10.10;99.90;;;;;;5094654;28;20304;-84
2021/12/13 01:04:14;;;;;;;;;;;10.10;99.90;;;;;;5078055;28;20416;-84
2021/12/13 01:06:39;;;;;;;;;;;10.20;99.90;;;;;;5077689;28;19924;-84
2021/12/13 01:09:43;;;;;;;;;;;10.20;99.90;;;;;;5094531;28;19935;-84
2021/12/13 01:12:10;;;;;;;;;;;10.10;99.90;;;;;;5024471;28;20006;-83
2021/12/13 01:14:41;;;;;;;;;;;10.20;99.90;;;;;;5052411;28;20440;-84
2021/12/13 01:17:27;;;;;;;;;;;10.10;99.90;;;;;;5074488;28;19928;-84
2021/12/13 01:20:00;;;;;;;;;;;10.20;99.90;;;;;;5098338;28;19932;-83
2021/12/13 01:22:50;;;;;;;;;;;10.20;99.90;;;;;;5098474;28;20350;-84
2021/12/13 01:25:36;;;;;;;;;;;10.20;99.90;;;;;;5098990;28;19980;-85
2021/12/13 01:28:04;;;;;;;;;;;10.20;99.90;;;;;;5114786;28;19993;-84
2021/12/13 01:30:38;;;;;;;;;;;10.20;99.90;;;;;;5097471;28;19928;-84
2021/12/13 01:33:05;;;;;;;;;;;10.20;99.90;;;;;;5114772;28;20030;-84
2021/12/13 01:35:32;;;;;;;;;;;10.20;99.90;;;;;;5097863;28;20014;-83
2021/12/13 01:38:02;;;;;;;;;;;10.20;99.90;;;;;;5097398;28;19924;-84
2021/12/13 01:40:28;;;;;;;;;;;10.20;99.90;;;;;;5097786;28;19924;-84
2021/12/13 01:42:58;;;;;;;;;;;10.20;99.90;;;;;;5080320;28;20340;-84
2021/12/13 01:45:24;;;;;;;;;;;10.20;99.90;;;;;;5080699;28;19931;-84
2021/12/13 01:47:50;;;;;;;;;;;10.20;99.90;;;;;;5096886;28;19963;-84
2021/12/13 01:50:22;;;;;;;;;;;10.20;99.90;;;;;;5097214;28;20036;-84
2021/12/13 01:52:49;;;;;;;;;;;10.20;99.90;;;;;;5096811;28;20010;-84
2021/12/13 01:55:23;;;;;;;;;;;10.10;99.90;;;;;;5097433;28;19924;-85
2021/12/13 01:57:54;;;;;;;;;;;10.20;99.90;;;;;;5114891;28;20394;-84
2021/12/13 02:00:21;;;;;;;;;;;10.10;99.90;;;;;;5097955;28;20291;-84
2021/12/13 02:02:48;;;;;;;;;;;10.10;99.90;;;;;;5096301;28;19923;-84
2021/12/13 02:05:15;;;;;;;;;;;10.10;99.90;;;;;;5096985;28;20006;-84
2021/12/13 02:07:46;;;;;;;;;;;10.10;99.90;;;;;;5096482;28;19923;-84
2021/12/13 02:10:30;;;;;;;;;;;10.10;99.90;;;;;;5097014;28;19960;-84
2021/12/13 02:12:59;;;;;;;;;;;10.20;99.90;;;;;;5113458;28;19927;-84
2021/12/13 02:18:11;;;;;;;;;;;10.20;99.90;;;;;;5099526;28;19931;-84
2021/12/13 02:20:37;;;;;;;;;;;10.20;99.90;;;;;;5113890;28;19924;-84
2021/12/13 02:23:03;;;;;;;;;;;10.10;99.90;;;;;;5096253;28;19924;-84
2021/12/13 02:25:39;;;;;;;;;;;10.20;99.90;;;;;;5096891;28;19923;-85
2021/12/13 02:28:07;;;;;;;;;;;10.10;99.90;;;;;;5079194;28;19985;-84
2021/12/13 02:30:32;;;;;;;;;;;10.10;99.90;;;;;;5096019;28;19923;-84
2021/12/13 02:32:58;;;;;;;;;;;10.20;99.90;;;;;;5113143;28;19924;-85
2021/12/13 02:35:27;;;;;;;;;;;10.10;99.90;;;;;;5096337;28;19946;-84
2021/12/13 02:37:53;;;;;;;;;;;10.20;99.90;;;;;;5113079;28;19923;-84
2021/12/13 02:40:19;;;;;;;;;;;10.20;99.90;;;;;;5113352;28;19930;-84
2021/12/13 02:42:44;;;;;;;;;;;10.10;99.90;;;;;;5096076;28;19923;-84
2021/12/13 02:45:14;;;;;;;;;;;10.20;99.90;;;;;;5113496;28;19924;-84
2021/12/13 02:47:42;;;;;;;;;;;10.10;99.90;;;;;;5096576;28;19947;-84
2021/12/13 02:50:09;;;;;;;;;;;10.10;99.90;;;;;;5079197;28;19923;-84
2021/12/13 02:52:37;;;;;;;;;;;10.10;99.90;;;;;;5079482;28;20010;-84
2021/12/13 02:55:04;;;;;;;;;;;10.10;99.90;;;;;;5096217;28;19923;-84
2021/12/13 02:57:31;;;;;;;;;;;10.10;99.90;;;;;;5096244;28;20264;-84
2021/12/13 03:00:06;;;;;;;;;;;10.00;99.90;;;;;;5078652;28;19932;-84
2021/12/13 03:02:37;;;;;;;;;;;10.00;99.90;;;;;;5113361;28;19986;-84
2021/12/13 03:05:03;;;;;;;;;;;10.00;99.90;;;;;;5095650;28;19923;-84
2021/12/13 03:07:31;;;;;;;;;;;10.00;99.90;;;;;;5112857;28;19924;-84
2021/12/13 03:09:56;;;;;;;;;;;10.00;99.90;;;;;;5095534;28;19924;-84
2021/12/13 03:12:22;;;;;;;;;;;10.00;99.90;;;;;;5095471;28;19931;-84
2021/12/13 03:14:49;;;;;;;;;;;10.00;99.90;;;;;;5074517;28;19923;-84
2021/12/13 03:17:34;;;;;;;;;;;10.00;99.90;;;;;;5075634;28;19931;-84
2021/12/13 03:20:06;;;;;;;;;;;10.00;99.90;;;;;;5091877;28;20433;-84
2021/12/13 03:22:51;;;;;;;;;;;10.00;99.90;;;;;;5075827;28;19924;-84
2021/12/13 03:25:35;;;;;;;;;;;9.90;99.90;;;;;;5091858;28;19924;-84
2021/12/13 03:28:13;;;;;;;;;;;9.90;99.90;;;;;;5091442;28;19931;-84
2021/12/13 03:30:43;;;;;;;;;;;9.90;99.90;;;;;;5111488;28;19924;-84
2021/12/13 03:33:10;;;;;;;;;;;9.90;99.90;;;;;;5095441;28;20338;-84
2021/12/13 03:35:40;;;;;;;;;;;9.90;99.90;;;;;;5095004;28;19976;-84
2021/12/13 03:38:07;;;;;;;;;;;9.90;99.90;;;;;;5095248;28;19928;-84
2021/12/13 03:40:33;;;;;;;;;;;9.90;99.90;;;;;;5095721;28;19936;-84
2021/12/13 03:42:59;;;;;;;;;;;9.80;99.90;;;;;;5095225;28;19985;-84
2021/12/13 03:45:33;;;;;;;;;;;9.80;99.90;;;;;;5112663;28;19932;-84
2021/12/13 03:47:59;;;;;;;;;;;9.80;99.90;;;;;;5094496;28;19924;-84
2021/12/13 03:50:26;;;;;;;;;;;9.80;99.90;;;;;;5112395;28;20332;-84
2021/12/13 03:52:53;;;;;;;;;;;9.80;99.90;;;;;;5094485;28;19931;-85
2021/12/13 03:55:19;;;;;;;;;;;9.80;99.90;;;;;;5078700;28;20027;-84
2021/12/13 03:57:55;;;;;;;;;;;9.70;99.90;;;;;;5095497;28;20018;-84
2021/12/13 04:00:23;;;;;;;;;;;9.80;99.90;;;;;;5112212;28;20148;-83
2021/12/13 04:02:49;;;;;;;;;;;9.80;99.90;;;;;;5078709;28;19924;-83
2021/12/13 04:05:16;;;;;;;;;;;9.80;99.90;;;;;;5094683;28;19923;-83
2021/12/13 04:07:46;;;;;;;;;;;9.80;99.90;;;;;;5095249;28;20073;-84
2021/12/13 04:10:13;;;;;;;;;;;9.70;99.90;;;;;;5094843;28;19931;-83
2021/12/13 04:12:47;;;;;;;;;;;9.70;99.90;;;;;;5095387;28;19924;-84
2021/12/13 04:15:21;;;;;;;;;;;9.70;99.90;;;;;;5095813;28;19931;-83
2021/12/13 04:20:29;;;;;;;;;;;9.60;99.90;;;;;;5112289;28;19924;-84
2021/12/13 04:22:56;;;;;;;;;;;9.60;99.90;;;;;;5112014;28;20022;-84
2021/12/13 04:25:23;;;;;;;;;;;9.60;99.90;;;;;;5095318;28;19924;-84
2021/12/13 04:27:57;;;;;;;;;;;9.70;99.90;;;;;;5098750;28;20382;-84
2021/12/13 04:30:24;;;;;;;;;;;9.60;99.90;;;;;;5098850;28;19924;-84
2021/12/13 04:32:51;;;;;;;;;;;9.60;99.90;;;;;;5082072;28;19924;-84
2021/12/13 04:35:16;;;;;;;;;;;9.60;99.90;;;;;;5115341;28;20321;-84
2021/12/13 04:37:46;;;;;;;;;;;9.60;99.90;;;;;;5115946;28;20382;-84
2021/12/13 04:40:14;;;;;;;;;;;9.50;99.90;;;;;;5101563;27;19930;-84
2021/12/13 04:42:40;;;;;;;;;;;9.50;99.90;;;;;;5081887;28;20290;-84
2021/12/13 04:45:07;;;;;;;;;;;9.40;99.90;;;;;;5081431;28;19928;-84
2021/12/13 04:47:33;;;;;;;;;;;9.50;99.90;;;;;;5098467;28;19930;-84
2021/12/13 04:50:05;;;;;;;;;;;9.50;99.90;;;;;;5115290;28;19923;-84
2021/12/13 04:52:31;;;;;;;;;;;9.40;99.90;;;;;;5114910;28;20002;-84
2021/12/13 04:54:56;;;;;;;;;;;9.50;99.90;;;;;;5115380;28;19981;-84
2021/12/13 04:57:22;;;;;;;;;;;9.50;99.90;;;;;;5114460;28;19923;-84
2021/12/13 04:59:48;;;;;;;;;;;9.40;99.90;;;;;;5081511;28;19946;-83
2021/12/13 05:02:14;;;;;;;;;;;9.40;99.90;;;;;;5098039;28;20291;-84
2021/12/13 05:04:39;;;;;;;;;;;9.50;99.90;;;;;;5098488;28;19924;-85
2021/12/13 05:07:05;;;;;;;;;;;9.50;99.90;;;;;;5114644;28;19928;-85
2021/12/13 05:09:31;;;;;;;;;;;9.50;99.90;;;;;;5081116;28;19930;-85
2021/12/13 05:12:04;;;;;;;;;;;9.40;99.90;;;;;;5081544;28;19923;-85
2021/12/13 05:14:33;;;;;;;;;;;9.50;99.90;;;;;;5115361;28;19924;-85
2021/12/13 05:16:59;;;;;;;;;;;9.40;99.90;;;;;;5115169;28;19930;-85
2021/12/13 05:19:26;;;;;;;;;;;9.40;99.90;;;;;;5080766;28;19971;-85
2021/12/13 05:21:52;;;;;;;;;;;9.40;99.90;;;;;;5114871;28;19930;-86
2021/12/13 05:24:19;;;;;;;;;;;9.40;99.90;;;;;;5114636;28;20022;-85
2021/12/13 05:26:49;;;;;;;;;;;9.50;99.90;;;;;;5081272;28;19931;-86
2021/12/13 05:29:38;;;;;;;;;;;9.40;99.90;;;;;;5096970;28;19928;-85
2021/12/13 05:32:06;;;;;;;;;;;9.40;99.90;;;;;;5105801;28;19927;-84
2021/12/13 05:34:34;;;;;;;;;;;9.40;99.90;;;;;;5115677;27;19977;-84
2021/12/13 05:37:01;;;;;;;;;;;9.40;99.90;;;;;;5080350;28;19923;-84
2021/12/13 05:39:26;;;;;;;;;;;9.40;99.90;;;;;;5097283;28;19924;-87
2021/12/13 05:41:53;;;;;;;;;;;9.40;99.90;;;;;;5097765;28;20428;-86
2021/12/13 05:44:32;;;;;;;;;;;9.40;99.90;;;;;;5097305;28;20344;-87
2021/12/13 05:46:58;;;;;;;;;;;9.40;99.90;;;;;;5097464;28;20409;-87
2021/12/13 05:49:33;;;;;;;;;;;9.40;99.90;;;;;;5096734;28;19924;-87
2021/12/13 05:52:39;;;;;;;;;;;9.30;99.90;;;;;;5097729;28;20372;-87
2021/12/13 05:55:09;;;;;;;;;;;9.40;99.90;;;;;;5097504;28;19924;-83
2021/12/13 05:57:36;;;;;;;;;;;9.30;99.90;;;;;;5114429;28;20487;-84
2021/12/13 06:00:05;;;;;;;;;;;9.30;99.90;;;;;;5099842;27;19931;-83
2021/12/13 06:02:43;;;;;;;;;;;9.30;99.90;;;;;;5113820;27;19931;-84
2021/12/13 06:05:13;;;;;;;;;;;9.30;99.90;;;;;;5096693;28;19924;-87
2021/12/13 06:07:45;;;;;;;;;;;9.30;99.90;;;;;;5080228;28;20278;-89
2021/12/13 06:10:21;;;;;;;;;;;9.30;99.90;;;;;;5109960;27;20268;-92
2021/12/13 06:12:51;;;;;;;;;;;9.30;99.90;;;;;;5077379;28;20003;-85
2021/12/13 06:15:19;;;;;;;;;;;9.30;99.90;;;;;;5086803;27;19927;-84
2021/12/13 06:17:46;;;;;;;;;;;9.30;99.90;;;;;;5117904;27;20376;-85
2021/12/13 06:20:13;;;;;;;;;;;9.30;99.90;;;;;;5093978;28;19931;-84
2021/12/13 06:22:38;;;;;;;;;;;9.30;99.90;;;;;;5080362;28;19923;-84
2021/12/13 06:25:14;;;;;;;;;;;9.30;99.90;;;;;;5077794;28;19968;-85
2021/12/13 06:27:41;;;;;;;;;;;9.30;99.90;;;;;;5111188;28;19935;-84
2021/12/13 06:30:11;;;;;;;;;;;9.30;99.90;;;;;;5112752;28;20015;-85
2021/12/13 06:32:41;;;;;;;;;;;9.30;99.90;;;;;;5094040;28;19935;-84
2021/12/13 06:35:39;;;;;;;;;;;9.30;99.90;;;;;;5131894;27;19924;-87
2021/12/13 06:38:28;;;;;;;;;;;9.30;99.90;;;;;;5075846;28;19928;-85
2021/12/13 06:41:01;;;;;;;;;;;9.20;99.90;;;;;;5094322;27;20006;-85
2021/12/13 06:43:27;;;;;;;;;;;9.20;99.90;;;;;;5077861;28;20011;-85
2021/12/13 06:45:53;;;;;;;;;;;9.20;99.90;;;;;;5112721;28;19988;-84
2021/12/13 06:48:36;;;;;;;;;;;9.30;99.90;;;;;;5093658;28;19931;-87
2021/12/13 06:51:02;;;;;;;;;;;9.20;99.90;;;;;;5097979;28;19930;-88
2021/12/13 06:53:54;;;;;;;;;;;9.30;99.90;;;;;;5094413;28;20376;-88
2021/12/13 06:56:29;;;;;;;;;;;9.20;99.90;;;;;;5093415;28;19923;-88
2021/12/13 06:58:58;;;;;;;;;;;9.20;99.90;;;;;;5111668;28;19924;-87
2021/12/13 07:01:29;;;;;;;;;;;9.20;99.90;;;;;;5094153;28;19982;-88
2021/12/13 07:04:09;;;;;;;;;;;;;;;;;;;;;
2021/12/13 07:06:44;;;;;;;;;;;9.20;99.90;;;;;;5099666;28;19939;-89
2021/12/13 07:09:30;;;;;;;;;;;9.20;99.90;;;;;;5094696;28;19931;-87
2021/12/13 07:11:56;;;;;;;;;;;9.20;99.90;;;;;;5077579;27;20331;-86
2021/12/13 07:14:38;;;;;;;;;;;9.20;99.90;;;;;;5093486;28;19932;-86
2021/12/13 07:17:14;;;;;;;;;;;9.20;99.90;;;;;;5092961;28;19946;-87
2021/12/13 07:19:43;;;;;;;;;;;9.20;99.90;;;;;;5093714;28;19924;-87
2021/12/13 07:22:16;;;;;;;;;;;9.30;99.90;;;;;;5094368;28;19930;-86
2021/12/13 07:24:48;;;;;;;;;;;9.30;99.90;;;;;;5075242;28;20392;-87
2021/12/13 07:27:18;;;;;;;;;;;9.30;99.90;;;;;;5076897;28;20011;-86
2021/12/13 07:29:49;;;;;;;;;;;9.20;99.90;;;;;;5092807;28;19923;-87
2021/12/13 07:32:26;;;;;;;;;;;9.20;99.90;;;;;;5096546;28;19973;-87
2021/12/13 07:34:59;;;;;;;;;;;9.20;99.90;;;;;;5093006;28;20018;-88
2021/12/13 07:37:43;;;;;;;;;;;9.20;99.90;;;;;;5091960;28;20018;-87
2021/12/13 07:40:12;;;;;;;;;;;9.20;99.90;;;;;;5093194;28;19932;-87
2021/12/13 07:42:48;;;;;;;;;;;9.20;99.90;;;;;;5092584;28;19947;-87
2021/12/13 07:45:24;;;;;;;;;;;9.20;99.90;;;;;;5095898;28;19920;-88
2021/12/13 07:47:49;;;;;;;;;;;9.20;99.90;;;;;;5094929;28;20349;-91
2021/12/13 07:50:15;;;;;;;;;;;9.20;99.90;;;;;;5093658;28;20018;-87
2021/12/13 07:52:40;;;;;;;;;;;9.20;99.90;;;;;;5093217;28;20248;-87
2021/12/13 07:55:17;;;;;;;;;;;9.30;99.90;;;;;;5077121;28;19920;-88
2021/12/13 07:57:45;;;;;;;;;;;9.30;99.90;;;;;;5077002;28;19927;-87
2021/12/13 08:00:11;;;;;;;;;;;9.30;99.90;;;;;;5095764;28;20426;-87
2021/12/13 08:02:42;;;;;;;;;;;9.20;99.90;;;;;;5080529;28;19924;-87
2021/12/13 08:05:12;;;;;;;;;;;9.20;99.90;;;;;;5101521;28;20372;-86
2021/12/13 08:07:42;;;;;;;;;;;9.30;99.90;;;;;;5105536;28;19970;-87
2021/12/13 08:10:13;;;;;;;;;;;9.20;99.90;;;;;;5081659;28;20313;-87
2021/12/13 08:12:42;;;;;;;;;;;9.30;99.90;;;;;;5098062;28;19930;-87
2021/12/13 08:15:17;;;;;;;;;;;9.30;99.90;;;;;;5081855;28;20428;-86
2021/12/13 08:17:45;;;;;;;;;;;9.30;99.90;;;;;;5081780;28;19923;-86
2021/12/13 08:20:37;;;;;;;;;;;9.30;99.90;;;;;;5104596;28;19923;-92
2021/12/13 08:23:13;;;;;;;;;;;9.30;99.90;;;;;;5084180;28;19949;-88
2021/12/13 08:25:39;;;;;;;;;;;9.30;99.90;;;;;;5102238;27;20022;-88
2021/12/13 08:28:21;;;;;;;;;;;;;;;;;;;;;
2021/12/13 08:30:56;;;;;;;;;;;9.30;99.90;;;;;;5100922;27;19928;-88
2021/12/13 08:33:25;;;;;;;;;;;9.30;99.90;;;;;;5106643;28;19923;-88
2021/12/13 08:36:17;;;;;;;;;;;9.30;99.90;;;;;;5097825;28;19931;-88
2021/12/13 08:38:50;;;;;;;;;;;9.30;99.90;;;;;;5052934;27;20169;-88
2021/12/13 08:41:18;;;;;;;;;;;9.30;99.90;;;;;;5120012;27;19927;-88
2021/12/13 08:43:55;;;;;;;;;;;;;;;;;;;;;
2021/12/13 08:46:40;;;;;;;;;;;;;;;;;;;;;
2021/12/13 08:49:21;;;;;;;;;;;9.40;99.90;;;;;;5099050;28;19924;-88
2021/12/13 08:52:13;;;;;;;;;;;9.40;99.90;;;;;;5079587;28;20017;-88
2021/12/13 08:54:42;;;;;;;;;;;9.40;99.90;;;;;;5081993;28;19923;-90
2021/12/13 08:57:43;;;;;;;;;;;9.40;99.90;;;;;;5098030;28;19967;-91
2021/12/13 09:00:35;;;;;;;;;;;9.40;99.90;;;;;;5095257;28;19928;-89
2021/12/13 09:03:33;;;;;;;;;;;9.50;99.90;;;;;;5108624;27;20351;-89
2021/12/13 09:06:02;;;;;;;;;;;9.50;99.90;;;;;;5128002;27;19934;-91
2021/12/13 09:09:03;;;;;;;;;;;9.50;99.90;;;;;;5098474;28;20355;-91
2021/12/13 09:14:41;;;;;;;;;;;9.50;99.90;;;;;;5113065;27;19969;-91
2021/12/13 09:17:31;;;;;;;;;;;;;;;;;;;;;
2021/12/13 09:20:34;;;;;;;;;;;9.60;99.90;;;;;;5100050;28;20310;-89
2021/12/13 09:23:18;;;;;;;;;;;9.60;99.90;;;;;;5113942;28;19924;-91
2021/12/13 09:26:24;;;;;;;;;;;;;;;;;;;;;
2021/12/13 09:29:09;;;;;;;;;;;;;;;;;;;;;
2021/12/13 09:31:50;;;;;;;;;;;9.60;99.90;;;;;;5115264;28;20398;-91
2021/12/13 09:34:19;;;;;;;;;;;9.70;99.90;;;;;;5098347;28;19927;-91
2021/12/13 09:37:23;;;;;;;;;;;9.70;99.90;;;;;;5096964;28;19935;-90
2021/12/13 09:39:57;;;;;;;;;;;9.70;99.90;;;;;;5095630;28;20397;-91
2021/12/13 09:42:55;;;;;;;;;;;;;;;;;;;;;
2021/12/13 09:46:03;;;;;;;;;;;9.70;99.90;;;;;;5100917;28;19924;-91
2021/12/13 09:48:59;;;;;;;;;;;9.70;99.90;;;;;;5112921;28;19924;-89
2021/12/13 09:51:47;;;;;;;;;;;9.70;99.90;;;;;;5093824;28;20331;-90
2021/12/13 09:54:23;;;;;;;;;;;9.80;99.90;;;;;;5107781;28;19923;-90
2021/12/13 09:56:51;;;;;;;;;;;9.80;99.90;;;;;;5080775;28;20339;-89
2021/12/13 09:59:28;;;;;;;;;;;9.80;99.90;;;;;;5076917;28;19928;-89
2021/12/13 10:02:30;;;;;;;;;;;;;;;;;;;;;
2021/12/13 10:08:00;;;;;;;;;;;9.80;99.90;;;;;;5089071;28;19923;-90
2021/12/13 10:11:05;;;;;;;;;;;;;;;;;;;;;
2021/12/13 10:13:44;;;;;;;;;;;9.80;99.90;;;;;;5107475;28;20256;-88
2021/12/13 10:17:00;;;;;;;;;;;9.80;99.90;;;;;;5078771;28;20341;-88
2021/12/13 10:19:33;;;;;;;;;;;9.80;99.90;;;;;;5091145;28;20268;-88
2021/12/13 10:22:22;;;;;;;;;;;9.80;99.90;;;;;;5114005;27;19924;-89
2021/12/13 10:25:24;;;;;;;;;;;9.80;99.90;;;;;;5096367;28;19924;-89
2021/12/13 10:28:00;;;;;;;;;;;9.80;99.90;;;;;;5112320;28;20367;-89
2021/12/13 10:31:02;;;;;;;;;;;9.80;99.90;;;;;;5086570;28;19927;-95
2021/12/13 10:33:46;;;;;;;;;;;9.80;99.90;;;;;;5105348;27;20299;-89
2021/12/13 10:39:09;;;;;;;;;;;9.80;99.90;;;;;;5108484;27;19941;-89
2021/12/13 10:41:39;;;;;;;;;;;9.90;99.90;;;;;;5116796;27;19927;-89
2021/12/13 10:44:25;;;;;;;;;;;9.90;99.90;;;;;;5110717;28;19984;-91
2021/12/13 10:47:18;;;;;;;;;;;9.90;99.90;;;;;;5097205;28;19930;-89
2021/12/13 10:49:55;;;;;;;;;;;10.00;99.90;;;;;;5091396;28;19924;-89
2021/12/13 10:52:31;;;;;;;;;;;9.90;99.90;;;;;;5073996;28;19928;-87
2021/12/13 10:55:16;;;;;;;;;;;;;;;;;;;;;
2021/12/13 10:57:50;;;;;;;;;;;10.00;99.90;;;;;;5093120;28;19924;-87
2021/12/13 11:00:28;;;;;;;;;;;10.00;99.90;;;;;;5077682;28;19989;-89
2021/12/13 11:06:18;;;;;;;;;;;10.00;99.90;;;;;;5100506;28;19924;-89
2021/12/13 11:09:19;;;;;;;;;;;10.00;99.90;;;;;;5085357;28;19923;-90
2021/12/13 11:11:40;;;;;;;;;;;10.00;99.90;;;;;;5097138;28;19938;-86
2021/12/13 11:14:20;;;;;;;;;;;;;;;;;;;;;
2021/12/13 11:16:49;;;;;;;;;;;10.00;99.90;;;;;;5107725;27;19924;-86
2021/12/13 11:19:17;;;;;;;;;;;10.10;99.90;;;;;;5104172;28;19928;-86
2021/12/13 11:21:43;;;;;;;;;;;10.10;99.90;;;;;;5107885;28;20014;-86
2021/12/13 11:24:12;;;;;;;;;;;10.10;99.90;;;;;;5095230;28;19924;-86
2021/12/13 11:26:39;;;;;;;;;;;10.10;99.90;;;;;;5101933;27;19924;-87
2021/12/13 11:29:07;;;;;;;;;;;10.20;99.90;;;;;;5077835;28;19932;-86
2021/12/13 11:31:42;;;;;;;;;;;10.20;99.90;;;;;;5112220;28;19923;-85
2021/12/13 11:34:07;;;;;;;;;;;10.20;99.90;;;;;;5106570;28;20011;-85
2021/12/13 11:37:07;;;;;;;;;;;10.20;99.90;;;;;;5111481;27;20336;-88
2021/12/13 11:39:54;;;;;;;;;;;10.30;99.90;;;;;;5083248;28;19928;-89
2021/12/13 11:43:02;;;;;;;;;;;10.30;99.90;;;;;;5106660;28;19927;-90
2021/12/13 11:48:57;;;;;;;;;;;10.30;99.90;;;;;;5108435;28;19924;-88
2021/12/13 11:52:02;;;;;;;;;;;10.40;99.90;;;;;;5077520;28;19924;-88
2021/12/13 11:54:46;;;;;;;;;;;10.40;99.90;;;;;;5062225;28;19931;-91
2021/12/13 11:57:14;;;;;;;;;;;10.40;99.90;;;;;;5095278;28;20034;-91
2021/12/13 11:59:48;;;;;;;;;;;10.50;99.90;;;;;;5100000;28;19924;-91
2021/12/13 12:02:38;;;;;;;;;;;10.50;99.90;;;;;;5094792;28;19923;-93
2021/12/13 12:05:23;;;;;;;;;;;10.50;99.90;;;;;;5096439;28;19924;-94
2021/12/13 12:07:58;;;;;;;;;;;10.50;99.90;;;;;;5095539;28;19930;-93
2021/12/13 12:11:06;;;;;;;;;;;10.50;99.90;;;;;;5099482;28;20359;-94
2021/12/13 12:14:02;;;;;;;;;;;10.50;99.90;;;;;;5018712;28;19947;-92
2021/12/13 12:16:55;;;;;;;;;;;10.50;99.90;;;;;;5090251;28;19927;-93
2021/12/13 12:19:27;;;;;;;;;;;10.50;99.90;;;;;;5113206;28;19923;-93
2021/12/13 12:24:55;;;;;;;;;;;10.50;99.90;;;;;;5087213;28;19932;-92
2021/12/13 12:27:27;;;;;;;;;;;10.50;99.90;;;;;;5109762;28;20264;-94
2021/12/13 12:30:11;;;;;;;;;;;;;;;;;;;;;
2021/12/13 12:32:49;;;;;;;;;;;10.40;99.90;;;;;;5097390;28;19930;-88
2021/12/13 12:35:21;;;;;;;;;;;10.40;99.90;;;;;;5094906;28;19950;-87
2021/12/13 12:37:56;;;;;;;;;;;10.30;99.90;;;;;;5095805;28;20310;-89
2021/12/13 12:40:28;;;;;;;;;;;10.30;99.90;;;;;;5117613;28;20073;-88
2021/12/13 12:42:55;;;;;;;;;;;10.30;99.90;;;;;;5111103;28;19976;-88
2021/12/13 12:45:42;;;;;;;;;;;10.20;99.90;;;;;;5106229;28;19923;-88
2021/12/13 12:48:20;;;;;;;;;;;10.20;99.90;;;;;;5088282;28;19949;-88
2021/12/13 12:50:53;;;;;;;;;;;10.20;99.90;;;;;;5084919;27;19980;-88
2021/12/13 12:53:34;;;;;;;;;;;10.20;99.90;;;;;;5119672;27;19930;-87
2021/12/13 12:59:12;;;;;;;;;;;10.20;99.90;;;;;;5112801;27;19931;-87
2021/12/13 13:01:45;;;;;;;;;;;10.10;99.90;;;;;;5125299;27;20484;-88
2021/12/13 13:04:17;;;;;;;;;;;10.10;99.90;;;;;;5084221;27;19930;-87
2021/12/13 13:06:51;;;;;;;;;;;10.10;99.90;;;;;;5088019;27;19931;-88
2021/12/13 13:09:33;;;;;;;;;;;;;;;;;;;;;
2021/12/13 13:12:12;;;;;;;;;;;;;;;;;;;;;
2021/12/13 13:15:12;;;;;;;;;;;10.10;99.90;;;;;;5118893;27;20025;-89
2021/12/13 13:17:42;;;;;;;;;;;10.00;99.90;;;;;;5068172;27;19945;-88
2021/12/13 13:20:28;;;;;;;;;;;10.00;99.90;;;;;;5080578;27;20010;-88
2021/12/13 13:22:59;;;;;;;;;;;10.00;99.90;;;;;;5107930;27;19972;-90
2021/12/13 13:25:34;;;;;;;;;;;10.00;99.90;;;;;;5122537;27;20036;-90
2021/12/13 13:28:04;;;;;;;;;;;10.10;99.90;;;;;;5099961;27;20322;-90
2021/12/13 13:30:37;;;;;;;;;;;10.10;99.90;;;;;;5083655;28;19928;-93
2021/12/13 13:36:00;;;;;;;;;;;10.10;99.90;;;;;;5104069;27;19935;-93
2021/12/13 13:38:50;;;;;;;;;;;10.10;99.90;;;;;;5102902;28;19924;-91
2021/12/13 13:41:23;;;;;;;;;;;10.10;99.90;;;;;;5103084;27;20021;-91
2021/12/13 13:43:51;;;;;;;;;;;10.10;99.90;;;;;;5089690;28;19923;-92
2021/12/13 13:46:32;;;;;;;;;;;10.10;99.90;;;;;;5080844;28;19927;-91
2021/12/13 13:49:28;;;;;;;;;;;;;;;;;;;;;
2021/12/13 13:52:12;;;;;;;;;;;10.10;99.90;;;;;;5119852;27;19923;-95
2021/12/13 13:54:42;;;;;;;;;;;10.10;99.90;;;;;;5079800;27;20015;-89
2021/12/13 13:57:16;;;;;;;;;;;10.10;99.90;;;;;;5126459;27;19923;-90
2021/12/13 14:02:38;;;;;;;;;;;10.10;99.90;;;;;;5101266;27;19924;-88
2021/12/13 14:05:12;;;;;;;;;;;10.10;99.90;;;;;;5108603;27;19946;-88
2021/12/13 14:07:55;;;;;;;;;;;;;;;;;;;;;
2021/12/13 14:10:34;;;;;;;;;;;;;;;;;;;;;
2021/12/13 14:13:11;;;;;;;;;;;10.10;99.90;;;;;;5092139;27;19931;-87
2021/12/13 14:15:51;;;;;;;;;;;;;;;;;;;;;
2021/12/13 14:18:32;;;;;;;;;;;10.00;99.90;;;;;;5097627;28;19924;-89
2021/12/13 14:21:12;;;;;;;;;;;10.00;99.90;;;;;;5083106;28;19984;-87
2021/12/13 14:23:38;;;;;;;;;;;10.00;99.90;;;;;;5081753;28;19928;-87
2021/12/13 14:26:04;;;;;;;;;;;9.90;99.90;;;;;;5079467;28;19971;-87
2021/12/13 14:28:45;;;;;;;;;;;10.00;99.90;;;;;;5097280;27;19973;-88
2021/12/13 14:31:18;;;;;;;;;;;9.90;99.90;;;;;;5106460;27;19931;-87
2021/12/13 14:33:52;;;;;;;;;;;9.90;99.90;;;;;;5106309;27;20010;-87
2021/12/13 14:36:30;;;;;;;;;;;9.90;99.90;;;;;;5091108;28;19934;-88
2021/12/13 14:39:17;;;;;;;;;;;9.90;99.90;;;;;;5096631;28;19924;-87
2021/12/13 14:41:50;;;;;;;;;;;9.90;99.90;;;;;;5095958;28;19931;-86
2021/12/13 14:44:39;;;;;;;;;;;10.00;99.90;;;;;;5097184;27;19924;-87
2021/12/13 14:47:10;;;;;;;;;;;9.90;99.90;;;;;;5121686;27;19970;-92
2021/12/13 14:50:01;;;;;;;;;;;9.90;99.90;;;;;;5086784;28;19923;-94
2021/12/13 14:52:35;;;;;;;;;;;9.90;99.90;;;;;;5116360;27;19987;-96
2021/12/13 14:55:02;;;;;;;;;;;9.90;99.90;;;;;;5102192;28;20330;-95
2021/12/13 14:57:50;;;;;;;;;;;9.90;99.90;;;;;;5107480;27;20272;-96
2021/12/13 15:00:36;;;;;;;;;;;9.90;99.90;;;;;;5104294;27;20018;-92
2021/12/13 15:03:09;;;;;;;;;;;9.90;99.90;;;;;;5103999;28;20026;-91
2021/12/13 15:05:48;;;;;;;;;;;;;;;;;;;;;
2021/12/13 15:08:15;;;;;;;;;;;9.80;99.90;;;;;;5103703;27;19931;-89
2021/12/13 15:10:45;;;;;;;;;;;9.80;99.90;;;;;;5100331;28;20372;-89
2021/12/13 15:13:15;;;;;;;;;;;9.80;99.90;;;;;;5121341;27;19969;-90
2021/12/13 15:15:52;;;;;;;;;;;9.80;99.90;;;;;;5075069;28;20380;-89
2021/12/13 15:18:30;;;;;;;;;;;;;;;;;;;;;
2021/12/13 15:21:01;;;;;;;;;;;9.80;99.90;;;;;;5115182;27;20248;-87
2021/12/13 15:23:43;;;;;;;;;;;;;;;;;;;;;
2021/12/13 15:29:28;;;;;;;;;;;9.70;99.90;;;;;;5095245;28;19959;-89
2021/12/13 15:32:18;;;;;;;;;;;9.70;99.90;;;;;;5097104;28;21371;-89
2021/12/13 15:35:30;;;;;;;;;;;;;;;;;;;;;
2021/12/13 15:38:10;;;;;;;;;;;9.70;99.90;;;;;;5093063;28;19924;-90
2021/12/13 15:40:59;;;;;;;;;;;9.70;99.90;;;;;;5111453;28;19928;-93
2021/12/13 15:44:01;;;;;;;;;;;9.70;99.90;;;;;;5095745;28;20358;-93
2021/12/13 15:46:57;;;;;;;;;;;;;;;;;;;;;
2021/12/13 15:49:45;;;;;;;;;;;9.70;99.90;;;;;;5106713;28;19931;-93
2021/12/13 15:52:28;;;;;;;;;;;;;;;;;;;;;
2021/12/13 15:55:15;;;;;;;;;;;9.60;99.90;;;;;;5093056;28;19951;-89
2021/12/13 15:57:45;;;;;;;;;;;9.60;99.90;;;;;;5097271;28;19966;-90
2021/12/13 16:00:18;;;;;;;;;;;9.50;99.90;;;;;;5094913;28;19924;-89
2021/12/13 16:02:49;;;;;;;;;;;9.50;99.90;;;;;;5094508;28;19924;-91
2021/12/13 16:08:04;;;;;;;;;;;9.50;99.90;;;;;;5108349;28;19979;-88
2021/12/13 16:10:33;;;;;;;;;;;9.50;99.90;;;;;;5082251;28;20690;-90
2021/12/13 16:13:10;;;;;;;;;;;9.50;99.90;;;;;;5078240;28;19928;-91
2021/12/13 16:15:41;;;;;;;;;;;9.50;99.90;;;;;;5094898;28;19934;-91